Alleghany, Virginia
Current Conditions -  °F | °C
As of 4:55 PM on Wednesday 28 Jan 2015 (Local Time) from KHSP Reporting Station
Clear Clear  
Wind Chill: 19°   Ceiling: Unl
Heat Index: 28°   Visibility: 10mi
Dew Point:   Wind: 10mph
Humidity: 41%   Direction: 300°WNW
Pressure: 30.1"   Gusts: NA
Location:  37.7731°N, 80.0632°W
Report Text: KHSP 282155Z AUTO 30009KT 10SM CLR M02/M14 A3010 RMK AO2 T10201136
Loading
Personal Weather Stations






























Interactive Weather Map New forecast layout! Learn more

10-Day Weather Forecast

Advertisements
Track Severe Weather on mobile